Time;durP1;ratioP1;P1;durP2;ratioP2;P2;SDS_P1;SDS_P2;PMS_P1;PMS_P2;Temp;Humidity;BMP_temperature;BMP_pressure;BME280_temperature;BME280_humidity;BME280_pressure;Samples;Min_cycle;Max_cycle;Signal;HPM_P1;HPM_P2
2022/02/15 00:03:20;;;;;;;2.42;0.68;;;17.60;64.60;;;;;;10417120;28;20040;-55
2022/02/15 00:08:21;;;;;;;0.98;0.50;;;17.60;64.50;;;;;;10415552;28;20033;-55
2022/02/15 00:13:22;;;;;;;1.85;0.40;;;17.70;64.50;;;;;;10407114;28;20072;-56
2022/02/15 00:18:23;;;;;;;0.55;0.30;;;17.60;64.40;;;;;;10416520;28;20546;-56
2022/02/15 00:23:23;;;;;;;1.50;0.40;;;17.70;64.40;;;;;;10416316;28;20373;-56
2022/02/15 00:28:24;;;;;;;1.23;0.40;;;17.70;64.40;;;;;;10415690;28;20545;-55
2022/02/15 00:33:25;;;;;;;0.80;0.50;;;17.60;64.30;;;;;;10416078;28;20516;-56
2022/02/15 00:38:25;;;;;;;1.20;0.40;;;17.60;64.30;;;;;;10415654;28;20041;-55
2022/02/15 00:43:26;;;;;;;1.15;0.40;;;17.60;64.20;;;;;;10431043;28;20437;-55
2022/02/15 00:48:27;;;;;;;1.38;0.50;;;17.60;64.30;;;;;;10421395;28;20056;-55
2022/02/15 00:53:28;;;;;;;1.23;0.30;;;17.60;64.20;;;;;;10430718;28;20034;-56
2022/02/15 00:58:28;;;;;;;0.70;0.50;;;17.60;64.20;;;;;;10413668;28;20044;-56
2022/02/15 01:03:29;;;;;;;1.30;0.30;;;17.60;64.10;;;;;;10407531;28;20082;-56
2022/02/15 01:08:30;;;;;;;1.65;0.40;;;17.70;64.10;;;;;;10413298;28;20041;-55
2022/02/15 01:13:31;;;;;;;1.50;0.77;;;17.60;64.10;;;;;;10412269;28;20045;-54
2022/02/15 01:18:32;;;;;;;0.55;0.35;;;17.60;64.00;;;;;;10413104;28;20056;-56
2022/02/15 01:23:33;;;;;;;1.50;0.40;;;17.60;64.00;;;;;;10412278;28;20044;-56
2022/02/15 01:28:34;;;;;;;0.40;0.30;;;17.60;64.00;;;;;;10413423;28;20037;-56
2022/02/15 01:33:35;;;;;;;0.90;0.40;;;17.70;63.90;;;;;;10412411;28;20056;-56
2022/02/15 01:38:36;;;;;;;0.68;0.40;;;17.60;63.90;;;;;;10406248;28;20056;-56
2022/02/15 01:43:43;;;;;;;0.63;0.30;;;17.70;64.00;;;;;;10413182;28;20033;-56
2022/02/15 01:48:47;;;;;;;0.55;0.40;;;17.70;63.90;;;;;;10411848;28;20087;-56
2022/02/15 01:53:47;;;;;;;0.85;0.50;;;17.60;64.40;;;;;;10413316;28;20373;-56
2022/02/15 01:58:48;;;;;;;1.75;0.40;;;17.70;63.80;;;;;;10406739;28;20048;-56
2022/02/15 02:03:49;;;;;;;0.55;0.30;;;17.60;63.70;;;;;;10412793;28;20068;-56
2022/02/15 02:08:50;;;;;;;4.68;0.60;;;17.60;63.80;;;;;;10413009;28;20037;-55
2022/02/15 02:13:50;;;;;;;1.35;0.70;;;17.70;63.80;;;;;;10402503;28;20045;-55
2022/02/15 02:18:51;;;;;;;0.63;0.40;;;17.60;63.70;;;;;;10381641;28;20034;-56
2022/02/15 02:23:52;;;;;;;2.42;0.30;;;17.60;63.70;;;;;;10412446;28;20068;-56
2022/02/15 02:28:53;;;;;;;0.47;0.20;;;17.70;63.50;;;;;;10412600;28;20163;-56
2022/02/15 02:34:01;;;;;;;1.98;0.50;;;17.70;63.60;;;;;;10428300;28;20056;-55
2022/02/15 02:39:02;;;;;;;0.57;0.30;;;17.60;63.50;;;;;;10412117;28;20044;-56
2022/02/15 02:44:03;;;;;;;1.50;0.30;;;17.70;63.40;;;;;;10425804;28;20041;-57
2022/02/15 02:49:03;;;;;;;0.60;0.40;;;17.70;63.40;;;;;;10411160;28;20045;-55
2022/02/15 02:54:04;;;;;;;1.35;0.50;;;17.70;63.30;;;;;;10418475;28;20493;-56
2022/02/15 02:59:05;;;;;;;0.65;0.30;;;17.70;63.40;;;;;;10417789;28;20068;-56
2022/02/15 03:04:05;;;;;;;3.50;0.73;;;17.60;63.30;;;;;;10413910;28;20033;-56
2022/02/15 03:09:06;;;;;;;0.82;0.40;;;17.60;63.30;;;;;;10419263;28;20140;-56
2022/02/15 03:14:07;;;;;;;0.55;0.30;;;17.60;63.20;;;;;;10418471;28;20041;-56
2022/02/15 03:19:08;;;;;;;1.63;0.50;;;17.60;63.10;;;;;;10417671;28;20358;-56
2022/02/15 03:24:10;;;;;;;0.57;0.30;;;17.60;63.10;;;;;;10417420;28;20104;-56
2022/02/15 03:29:11;;;;;;;1.15;0.30;;;17.60;63.20;;;;;;10434070;28;20082;-56
2022/02/15 03:34:11;;;;;;;1.05;0.30;;;17.70;63.20;;;;;;10429964;28;20053;-55
2022/02/15 03:39:12;;;;;;;1.15;0.45;;;17.60;63.10;;;;;;10418138;28;20080;-56
2022/02/15 03:44:13;;;;;;;0.43;0.22;;;17.70;63.10;;;;;;10416539;28;20025;-56
2022/02/15 03:49:13;;;;;;;0.82;0.25;;;17.60;62.90;;;;;;10417682;28;20033;-56
2022/02/15 03:54:14;;;;;;;0.60;0.30;;;17.60;62.90;;;;;;10415701;28;20035;-56
2022/02/15 03:59:15;;;;;;;1.30;0.30;;;17.70;63.00;;;;;;10417345;28;20044;-56
2022/02/15 04:04:16;;;;;;;1.10;0.45;;;17.60;62.90;;;;;;10416050;28;20496;-56
2022/02/15 04:09:17;;;;;;;0.60;0.30;;;17.60;62.90;;;;;;10399396;28;20045;-56
2022/02/15 04:14:17;;;;;;;0.82;0.40;;;17.60;62.90;;;;;;10415134;28;20425;-56
2022/02/15 04:19:18;;;;;;;0.43;0.30;;;17.60;62.90;;;;;;10416468;28;20136;-55
2022/02/15 04:24:19;;;;;;;1.15;0.50;;;17.60;62.90;;;;;;10415041;28;20046;-56
2022/02/15 04:29:21;;;;;;;0.50;0.20;;;17.60;62.90;;;;;;10415119;28;20390;-56
2022/02/15 04:34:22;;;;;;;0.38;0.20;;;17.70;62.90;;;;;;10409863;28;20398;-56
2022/02/15 04:39:22;;;;;;;0.85;0.38;;;17.70;62.90;;;;;;10415809;28;20120;-56
2022/02/15 04:44:23;;;;;;;1.00;0.30;;;17.60;62.70;;;;;;10414099;28;20104;-56
2022/02/15 04:49:24;;;;;;;0.50;0.30;;;17.70;62.90;;;;;;10414263;28;20034;-56
2022/02/15 04:54:25;;;;;;;0.68;0.40;;;17.60;62.80;;;;;;10415118;28;20029;-56
2022/02/15 04:59:27;;;;;;;0.55;0.40;;;17.60;62.70;;;;;;10409437;28;20036;-56
2022/02/15 05:09:48;;;;;;;0.60;0.20;;;17.60;62.60;;;;;;10415017;28;20038;-56
2022/02/15 05:14:49;;;;;;;1.50;0.65;;;17.60;62.70;;;;;;10400010;28;20056;-56
2022/02/15 05:19:49;;;;;;;1.40;0.40;;;17.60;62.70;;;;;;10413209;28;20091;-56
2022/02/15 05:24:50;;;;;;;1.15;0.50;;;17.60;62.50;;;;;;10412719;28;20426;-56
2022/02/15 05:29:51;;;;;;;0.80;0.30;;;17.60;62.50;;;;;;10429412;28;20112;-56
2022/02/15 05:34:51;;;;;;;0.88;0.40;;;17.60;62.50;;;;;;10413180;28;20101;-56
2022/02/15 05:39:52;;;;;;;1.30;0.20;;;17.60;62.60;;;;;;10429069;28;20045;-56
2022/02/15 05:44:53;;;;;;;1.15;0.30;;;17.60;62.60;;;;;;10413299;28;20022;-57
2022/02/15 05:55:14;;;;;;;2.03;0.50;;;17.60;62.50;;;;;;10414931;28;20045;-54
2022/02/15 06:00:17;;;;;;;4.55;0.90;;;17.70;62.70;;;;;;10406782;28;20022;-55
2022/02/15 06:05:17;;;;;;;3.20;0.50;;;17.80;63.90;;;;;;10412011;28;20056;-54
2022/02/15 06:10:18;;;;;;;5.20;1.20;;;17.80;64.20;;;;;;10411670;28;20190;-54
2022/02/15 06:15:19;;;;;;;1.85;0.75;;;17.80;64.50;;;;;;10411598;28;20030;-53
2022/02/15 06:20:20;;;;;;;4.18;0.63;;;17.80;64.10;;;;;;10403529;28;20040;-53
2022/02/15 06:25:21;;;;;;;9.20;1.10;;;17.80;64.30;;;;;;10412448;28;20025;-56
2022/02/15 06:30:22;;;;;;;10.23;1.40;;;17.70;64.80;;;;;;10420273;28;20037;-54
2022/02/15 06:35:22;;;;;;;5.40;1.08;;;17.70;64.60;;;;;;10421896;28;20108;-57
2022/02/15 06:40:23;;;;;;;8.32;1.20;;;17.60;64.90;;;;;;10419888;28;20116;-57
2022/02/15 06:45:24;;;;;;;9.43;1.48;;;17.60;65.20;;;;;;10418699;28;20112;-55
2022/02/15 06:50:25;;;;;;;9.38;1.75;;;17.50;65.00;;;;;;10419596;28;20037;-56
2022/02/15 06:55:26;;;;;;;10.80;1.67;;;17.50;65.00;;;;;;10419689;28;20033;-54
2022/02/15 07:00:27;;;;;;;11.15;1.80;;;17.40;65.00;;;;;;10423283;28;20030;-54
2022/02/15 07:05:28;;;;;;;12.25;2.25;;;17.30;64.50;;;;;;10415991;28;20040;-54
2022/02/15 07:10:29;;;;;;;6.38;1.27;;;17.40;64.50;;;;;;10418956;28;20428;-54
2022/02/15 07:15:29;;;;;;;6.82;1.50;;;17.30;64.50;;;;;;10417743;28;20079;-55
2022/02/15 07:20:30;;;;;;;5.93;1.70;;;17.30;64.40;;;;;;10418013;28;20109;-55
2022/02/15 07:25:31;;;;;;;8.73;1.48;;;17.30;64.50;;;;;;10404739;28;20033;-55
2022/02/15 07:30:35;;;;;;;3.80;1.50;;;17.40;64.30;;;;;;10414053;28;20099;-55
2022/02/15 07:35:36;;;;;;;6.68;1.40;;;17.40;64.10;;;;;;10421613;28;20029;-56
2022/02/15 07:40:37;;;;;;;7.20;1.58;;;17.40;64.00;;;;;;10405327;28;20409;-56
2022/02/15 07:45:40;;;;;;;6.78;1.83;;;17.50;63.80;;;;;;10419704;28;20033;-55
2022/02/15 07:50:41;;;;;;;10.05;1.45;;;17.50;63.50;;;;;;10409428;28;20077;-56
2022/02/15 07:55:42;;;;;;;7.35;1.40;;;17.50;63.40;;;;;;10388742;28;20184;-56
2022/02/15 08:00:43;;;;;;;4.13;1.05;;;17.50;63.40;;;;;;10405472;28;20060;-55
2022/02/15 08:05:43;;;;;;;5.45;1.10;;;17.50;63.50;;;;;;10402081;28;20509;-55
2022/02/15 08:10:45;;;;;;;5.25;1.00;;;17.50;63.50;;;;;;10411377;28;20038;-55
2022/02/15 08:15:49;;;;;;;5.85;0.93;;;17.50;63.50;;;;;;10414316;28;20185;-55
2022/02/15 08:20:49;;;;;;;5.20;0.90;;;17.50;63.50;;;;;;10406277;28;20699;-56
2022/02/15 08:25:54;;;;;;;3.92;1.00;;;17.50;64.10;;;;;;10401999;28;20100;-55
2022/02/15 08:30:54;;;;;;;4.97;1.02;;;17.50;63.90;;;;;;10413253;28;20054;-53
2022/02/15 08:35:55;;;;;;;5.38;0.90;;;17.60;63.70;;;;;;10423291;28;20044;-54
2022/02/15 08:40:56;;;;;;;5.18;1.20;;;17.60;63.70;;;;;;10411882;28;20538;-54
2022/02/15 08:45:57;;;;;;;6.03;1.65;;;17.50;63.70;;;;;;10413125;28;20088;-54
2022/02/15 08:50:57;;;;;;;2.95;0.85;;;17.50;63.70;;;;;;10413495;28;20029;-52
2022/02/15 08:55:59;;;;;;;3.92;1.25;;;17.40;63.70;;;;;;10409994;28;20052;-54
2022/02/15 09:01:02;;;;;;;9.40;1.20;;;17.40;63.90;;;;;;10408596;28;20101;-54
2022/02/15 09:06:03;;;;;;;3.00;0.80;;;17.40;63.80;;;;;;10413498;28;20400;-52
2022/02/15 09:11:04;;;;;;;5.93;0.90;;;17.40;63.80;;;;;;10409726;28;20025;-54
2022/02/15 09:16:04;;;;;;;2.90;0.93;;;17.40;63.80;;;;;;10392886;28;20048;-53
2022/02/15 09:21:05;;;;;;;8.13;1.33;;;17.40;63.80;;;;;;10410814;28;20565;-54
2022/02/15 09:26:08;;;;;;;3.60;1.20;;;17.40;63.90;;;;;;10413561;28;20041;-54
2022/02/15 09:31:09;;;;;;;3.92;0.90;;;17.30;64.00;;;;;;10413037;28;20045;-54
2022/02/15 09:36:10;;;;;;;2.78;0.70;;;17.30;64.10;;;;;;10412407;28;20025;-54
2022/02/15 09:41:11;;;;;;;2.40;0.80;;;17.40;64.00;;;;;;10412974;28;20108;-54
2022/02/15 09:46:15;;;;;;;2.67;0.85;;;17.40;63.90;;;;;;10381673;28;20065;-54
2022/02/15 09:51:18;;;;;;;3.65;1.27;;;17.30;63.90;;;;;;10411225;28;20040;-54
2022/02/15 09:56:20;;;;;;;3.22;1.23;;;17.30;64.00;;;;;;10411518;28;20037;-54
2022/02/15 10:01:20;;;;;;;3.17;0.70;;;17.40;64.00;;;;;;10410505;28;20026;-53
2022/02/15 10:06:28;;;;;;;2.28;0.90;;;17.40;63.80;;;;;;10406702;28;20033;-54
2022/02/15 10:11:39;;;;;;;3.15;0.82;;;17.30;63.80;;;;;;10410378;28;20450;-54
2022/02/15 10:16:49;;;;;;;2.83;0.70;;;17.30;63.80;;;;;;10411837;28;20034;-53
2022/02/15 10:21:54;;;;;;;1.55;0.55;;;17.30;63.60;;;;;;10410910;28;20037;-55
2022/02/15 10:27:07;;;;;;;5.05;0.98;;;17.40;63.30;;;;;;10411712;28;20493;-54
2022/02/15 10:32:17;;;;;;;1.20;1.00;;;17.50;63.40;;;;;;10395301;28;20053;-54
2022/02/15 10:37:18;;;;;;;2.47;0.70;;;17.50;63.30;;;;;;10415427;28;20034;-55
2022/02/15 10:42:21;;;;;;;3.30;0.77;;;17.40;63.40;;;;;;10424916;28;20164;-53
2022/02/15 10:47:22;;;;;;;7.43;1.30;;;17.40;64.00;;;;;;10408946;28;20070;-52
2022/02/15 10:52:23;;;;;;;8.77;1.50;;;17.40;64.70;;;;;;10409590;28;20596;-53
2022/02/15 10:57:25;;;;;;;9.23;1.45;;;17.40;64.90;;;;;;10408995;28;20044;-54
2022/02/15 11:02:28;;;;;;;7.85;1.58;;;17.40;64.70;;;;;;10409607;28;20041;-53
2022/02/15 11:07:36;;;;;;;6.57;2.10;;;17.40;64.70;;;;;;10411261;28;20029;-55
2022/02/15 11:12:48;;;;;;;5.78;1.45;;;17.30;64.70;;;;;;10403754;28;20044;-52
2022/02/15 11:18:02;;;;;;;7.78;1.52;;;17.40;64.80;;;;;;10412910;28;20030;-54
2022/02/15 11:23:02;;;;;;;7.13;1.52;;;17.40;64.70;;;;;;10415409;28;20382;-54
2022/02/15 11:28:16;;;;;;;6.78;0.90;;;17.40;64.50;;;;;;10409758;28;20049;-55
2022/02/15 11:33:37;;;;;;;5.55;1.25;;;17.40;64.60;;;;;;10418865;28;20122;-56
2022/02/15 11:38:38;;;;;;;5.55;1.17;;;17.40;64.90;;;;;;10424037;28;20108;-54
2022/02/15 11:43:39;;;;;;;3.55;0.90;;;17.40;64.90;;;;;;10414735;28;20034;-54
2022/02/15 11:48:42;;;;;;;1.85;1.00;;;17.40;65.00;;;;;;10396813;28;20066;-52
2022/02/15 11:53:44;;;;;;;3.28;0.80;;;17.50;65.00;;;;;;10404678;28;20033;-54
2022/02/15 11:58:47;;;;;;;10.70;1.15;;;17.40;64.90;;;;;;10414632;28;20497;-53
2022/02/15 12:03:51;;;;;;;3.33;0.90;;;17.40;64.90;;;;;;10408054;28;20029;-54
2022/02/15 12:08:57;;;;;;;5.40;0.95;;;17.40;65.00;;;;;;10413967;28;20041;-54
2022/02/15 12:14:15;;;;;;;3.35;0.90;;;17.40;65.00;;;;;;10411640;28;20045;-55
2022/02/15 12:19:24;;;;;;;5.32;0.90;;;17.50;65.70;;;;;;10414260;28;20041;-55
2022/02/15 12:24:27;;;;;;;3.58;0.75;;;17.50;65.10;;;;;;10429134;28;20116;-55
2022/02/15 12:29:28;;;;;;;3.17;1.15;;;17.40;65.10;;;;;;10401203;28;20570;-54
2022/02/15 12:34:29;;;;;;;2.35;0.88;;;17.40;65.10;;;;;;10412556;28;20061;-56
2022/02/15 12:39:36;;;;;;;4.40;0.82;;;17.40;65.10;;;;;;10408825;28;20030;-56
2022/02/15 12:44:39;;;;;;;3.15;0.77;;;17.40;65.00;;;;;;10400081;28;20025;-56
2022/02/15 12:49:39;;;;;;;2.03;0.52;;;17.30;65.00;;;;;;10406982;28;20064;-55
2022/02/15 12:54:52;;;;;;;3.60;1.00;;;17.30;65.00;;;;;;10408044;28;20068;-56
2022/02/15 12:59:58;;;;;;;8.27;1.35;;;17.30;65.10;;;;;;10412355;28;20120;-56
2022/02/15 13:04:59;;;;;;;6.38;1.15;;;17.30;65.20;;;;;;10414021;28;20022;-57
2022/02/15 13:10:03;;;;;;;3.70;0.77;;;17.20;65.10;;;;;;10413193;28;20611;-57
2022/02/15 13:15:05;;;;;;;1.65;0.80;;;17.20;65.20;;;;;;10411450;28;20112;-57
2022/02/15 13:20:22;;;;;;;3.92;0.73;;;17.20;65.20;;;;;;10403943;28;20036;-55
2022/02/15 13:25:23;;;;;;;4.30;0.82;;;17.10;65.10;;;;;;10401653;28;20389;-55
2022/02/15 13:30:26;;;;;;;2.58;0.70;;;17.20;64.90;;;;;;10408164;28;20033;-56
2022/02/15 13:35:28;;;;;;;4.38;1.10;;;17.20;65.10;;;;;;10420005;28;20045;-55
2022/02/15 13:40:30;;;;;;;2.08;0.60;;;17.20;65.10;;;;;;10401786;28;20022;-55
2022/02/15 13:45:31;;;;;;;5.22;0.82;;;17.20;64.90;;;;;;10394942;28;20382;-57
2022/02/15 13:50:33;;;;;;;3.65;0.98;;;17.20;65.00;;;;;;10411495;28;20445;-55
2022/02/15 13:55:33;;;;;;;5.82;1.20;;;17.20;64.70;;;;;;10412130;28;20061;-57
2022/02/15 14:00:34;;;;;;;7.35;1.10;;;17.30;65.60;;;;;;10412051;28;20025;-56
2022/02/15 14:05:35;;;;;;;6.05;1.23;;;17.30;65.30;;;;;;10410004;28;20025;-54
2022/02/15 14:10:37;;;;;;;6.97;1.63;;;17.40;66.30;;;;;;10410336;28;20055;-54
2022/02/15 14:15:42;;;;;;;6.45;1.10;;;17.40;68.30;;;;;;10427494;28;20033;-53
2022/02/15 14:20:43;;;;;;;5.85;1.30;;;17.50;68.40;;;;;;10409784;28;20454;-55
2022/02/15 14:25:43;;;;;;;5.40;1.38;;;17.50;69.30;;;;;;10410050;28;20055;-54
2022/02/15 14:30:45;;;;;;;11.02;1.40;;;17.60;67.80;;;;;;10412118;28;20451;-51
2022/02/15 14:35:46;;;;;;;3.15;1.23;;;17.70;67.10;;;;;;10411230;28;20393;-55
2022/02/15 14:40:47;;;;;;;4.93;1.20;;;17.50;67.10;;;;;;10411222;28;20025;-55
2022/02/15 14:45:52;;;;;;;3.95;0.90;;;17.30;67.10;;;;;;10408302;28;20037;-54
2022/02/15 14:50:54;;;;;;;6.07;1.25;;;17.20;67.10;;;;;;10416173;28;20029;-54
2022/02/15 14:55:56;;;;;;;3.67;1.63;;;17.10;67.20;;;;;;10414565;28;20034;-54
2022/02/15 15:00:57;;;;;;;3.15;0.88;;;17.10;67.10;;;;;;10412196;28;20033;-53
2022/02/15 15:05:58;;;;;;;3.22;1.10;;;17.10;66.90;;;;;;10415919;28;20040;-54
2022/02/15 15:10:59;;;;;;;3.88;1.15;;;17.10;66.80;;;;;;10417812;28;20040;-52
2022/02/15 15:16:00;;;;;;;5.07;1.23;;;17.10;66.30;;;;;;10416190;28;20040;-54
2022/02/15 15:21:00;;;;;;;4.25;0.88;;;17.20;66.00;;;;;;10413160;28;20100;-54
2022/02/15 15:26:01;;;;;;;5.03;1.02;;;17.20;65.70;;;;;;10414095;28;20044;-54
2022/02/15 15:31:02;;;;;;;5.97;1.42;;;17.30;65.70;;;;;;10417497;28;20045;-55
2022/02/15 15:36:03;;;;;;;4.10;1.13;;;17.30;65.60;;;;;;10418524;28;20056;-56
2022/02/15 15:41:04;;;;;;;7.80;1.52;;;17.50;65.50;;;;;;10421329;28;20029;-55
2022/02/15 15:46:04;;;;;;;2.42;0.90;;;17.50;65.50;;;;;;10415017;28;20094;-56
2022/02/15 15:51:08;;;;;;;4.68;1.00;;;17.50;64.70;;;;;;10416854;28;20030;-56
2022/02/15 15:56:09;;;;;;;9.35;1.38;;;17.40;64.50;;;;;;10398848;28;20088;-56
2022/02/15 16:01:10;;;;;;;4.70;1.17;;;17.40;64.70;;;;;;10412813;28;20095;-55
2022/02/15 16:06:11;;;;;;;4.28;1.27;;;17.40;65.20;;;;;;10413666;28;20116;-55
2022/02/15 16:11:12;;;;;;;7.82;0.90;;;17.50;64.40;;;;;;10417057;28;20183;-53
2022/02/15 16:16:14;;;;;;;3.38;1.00;;;17.50;64.10;;;;;;10402655;28;20034;-52
2022/02/15 16:21:15;;;;;;;8.98;1.13;;;17.60;63.60;;;;;;10405253;28;20050;-52
2022/02/15 16:26:16;;;;;;;9.13;1.25;;;17.70;63.30;;;;;;10399173;28;20401;-53
2022/02/15 16:31:54;;;;;;;3.67;1.30;;;17.50;63.40;;;;;;10413349;28;20041;-52
2022/02/15 16:36:55;;;;;;;4.20;1.08;;;17.50;63.50;;;;;;10423257;28;20060;-52
2022/02/15 16:41:56;;;;;;;2.92;0.93;;;17.40;63.60;;;;;;10402651;28;20044;-51
2022/02/15 16:46:57;;;;;;;5.75;1.33;;;17.40;63.70;;;;;;10408105;28;20030;-54
2022/02/15 16:51:57;;;;;;;7.03;1.30;;;17.40;63.60;;;;;;10412089;28;20425;-53
2022/02/15 16:56:58;;;;;;;9.80;3.13;;;17.50;62.90;;;;;;10408615;28;20386;-57
2022/02/15 17:01:59;;;;;;;12.55;3.33;;;17.60;62.50;;;;;;10430463;28;20039;-52
2022/02/15 17:07:04;;;;;;;17.85;3.20;;;17.80;65.50;;;;;;10414682;28;20026;-53
2022/02/15 17:12:07;;;;;;;8.00;3.10;;;17.90;65.60;;;;;;10413438;28;20120;-54
2022/02/15 17:17:08;;;;;;;11.95;3.50;;;18.00;65.10;;;;;;10392600;28;20036;-53
2022/02/15 17:22:09;;;;;;;10.90;2.40;;;18.00;65.30;;;;;;10417341;28;20054;-57
2022/02/15 17:27:10;;;;;;;7.38;2.50;;;18.00;65.20;;;;;;10400925;28;20122;-55
2022/02/15 17:32:11;;;;;;;9.52;2.33;;;17.90;64.50;;;;;;10429591;28;20060;-56
2022/02/15 17:37:12;;;;;;;7.95;2.20;;;17.80;64.70;;;;;;10415277;28;20374;-55
2022/02/15 17:42:19;;;;;;;12.18;2.75;;;17.70;65.70;;;;;;10429217;28;20049;-57
2022/02/15 17:47:22;;;;;;;7.45;2.28;;;17.70;65.60;;;;;;10413811;28;20046;-56
2022/02/15 17:52:23;;;;;;;6.50;2.22;;;17.70;65.00;;;;;;10411388;28;20043;-57
2022/02/15 17:57:25;;;;;;;11.48;2.63;;;17.60;65.10;;;;;;10422045;28;20128;-56
2022/02/15 18:02:26;;;;;;;7.35;2.30;;;17.50;65.20;;;;;;10428725;28;20056;-57
2022/02/15 18:07:26;;;;;;;8.35;2.08;;;17.50;65.20;;;;;;10410733;28;20112;-57
2022/02/15 18:12:28;;;;;;;8.68;2.03;;;17.40;65.30;;;;;;10401980;28;20052;-56
2022/02/15 18:17:29;;;;;;;8.25;2.50;;;17.40;65.50;;;;;;10392625;28;20448;-59
2022/02/15 18:22:30;;;;;;;9.00;3.03;;;17.40;66.00;;;;;;10402656;28;20029;-56
2022/02/15 18:27:30;;;;;;;5.90;2.22;;;17.30;66.10;;;;;;10388560;28;20029;-56
2022/02/15 18:32:31;;;;;;;8.15;2.38;;;17.30;66.10;;;;;;10406424;28;20107;-56
2022/02/15 18:37:33;;;;;;;9.13;1.85;;;17.30;65.90;;;;;;10397515;28;20030;-56
2022/02/15 18:42:34;;;;;;;6.90;2.53;;;17.30;65.80;;;;;;10417955;28;20128;-56
2022/02/15 18:47:35;;;;;;;6.20;1.75;;;17.40;66.40;;;;;;10426635;28;20109;-56
2022/02/15 18:52:36;;;;;;;7.95;2.17;;;17.40;66.20;;;;;;10411152;28;20441;-56
2022/02/15 18:57:37;;;;;;;6.90;1.55;;;17.40;66.10;;;;;;10412919;28;20387;-55
2022/02/15 19:02:39;;;;;;;9.43;2.25;;;17.40;66.10;;;;;;10394089;28;20022;-56
2022/02/15 19:07:40;;;;;;;6.20;1.88;;;17.30;66.20;;;;;;10406559;28;20030;-56
2022/02/15 19:12:41;;;;;;;4.75;1.40;;;17.40;66.00;;;;;;10389299;28;20033;-56
2022/02/15 19:17:43;;;;;;;3.42;1.35;;;17.30;65.80;;;;;;10387308;28;20413;-55
2022/02/15 19:22:45;;;;;;;6.40;2.33;;;17.30;65.60;;;;;;10414934;28;20021;-57
2022/02/15 19:27:46;;;;;;;5.15;1.20;;;17.40;65.70;;;;;;10398839;28;20084;-57
2022/02/15 19:32:47;;;;;;;3.10;1.30;;;17.40;65.60;;;;;;10408966;28;20046;-56
2022/02/15 19:37:48;;;;;;;2.85;1.27;;;17.30;65.50;;;;;;10417452;28;20029;-56
2022/02/15 19:42:48;;;;;;;5.05;1.45;;;17.40;65.50;;;;;;10403298;28;20025;-56
2022/02/15 19:47:49;;;;;;;5.38;1.30;;;17.40;65.30;;;;;;10396195;28;20527;-57
2022/02/15 19:52:50;;;;;;;4.18;0.88;;;17.40;65.10;;;;;;10391531;28;20462;-56
2022/02/15 19:57:50;;;;;;;4.72;1.60;;;17.50;65.00;;;;;;10407661;28;20037;-56
2022/02/15 20:02:51;;;;;;;2.85;1.40;;;17.50;64.90;;;;;;10402368;28;20167;-57
2022/02/15 20:07:54;;;;;;;4.38;1.30;;;17.50;64.90;;;;;;10399019;28;20037;-55
2022/02/15 20:12:56;;;;;;;4.28;1.20;;;17.50;64.80;;;;;;10424446;28;20083;-57
2022/02/15 20:17:57;;;;;;;6.28;1.27;;;17.50;64.80;;;;;;10414941;28;20026;-56
2022/02/15 20:22:58;;;;;;;4.43;1.20;;;17.50;64.80;;;;;;10421256;28;20096;-57
2022/02/15 20:27:59;;;;;;;4.43;1.00;;;17.50;64.70;;;;;;10412540;28;20108;-56
2022/02/15 20:33:00;;;;;;;6.57;1.33;;;17.60;64.60;;;;;;10414645;28;20088;-56
2022/02/15 20:38:01;;;;;;;3.63;1.10;;;17.50;64.70;;;;;;10421124;28;20087;-57
2022/02/15 20:43:01;;;;;;;3.38;1.23;;;17.50;64.90;;;;;;10413732;28;20036;-57
2022/02/15 20:48:02;;;;;;;4.47;1.10;;;17.50;65.00;;;;;;10414330;28;20383;-57
2022/02/15 20:53:04;;;;;;;1.70;0.88;;;17.50;65.10;;;;;;10415405;28;20029;-57
2022/02/15 20:58:08;;;;;;;3.75;1.05;;;17.40;64.90;;;;;;10398982;28;20029;-58
2022/02/15 21:03:09;;;;;;;1.88;0.80;;;17.50;65.00;;;;;;10412337;28;20048;-57
2022/02/15 21:08:10;;;;;;;5.93;1.10;;;17.50;64.70;;;;;;10414468;28;20036;-56
2022/02/15 21:13:11;;;;;;;2.78;0.90;;;17.50;64.60;;;;;;10413555;28;20241;-57
2022/02/15 21:18:11;;;;;;;3.22;0.90;;;17.50;64.50;;;;;;10413214;28;20120;-57
2022/02/15 21:23:12;;;;;;;2.50;0.95;;;17.50;64.40;;;;;;10414225;28;20026;-56
2022/02/15 21:28:13;;;;;;;2.70;0.95;;;17.60;64.40;;;;;;10410945;28;20026;-57
2022/02/15 21:33:14;;;;;;;2.78;0.77;;;17.60;64.20;;;;;;10413996;28;20081;-57
2022/02/15 21:38:16;;;;;;;1.88;0.77;;;17.60;64.10;;;;;;10416314;28;20032;-57
2022/02/15 21:43:16;;;;;;;1.38;0.68;;;17.60;64.00;;;;;;10413559;28;20032;-56
2022/02/15 21:48:19;;;;;;;2.53;0.88;;;17.60;63.80;;;;;;10395742;28;20481;-57
2022/02/15 21:53:20;;;;;;;4.47;1.60;;;17.60;63.80;;;;;;10399316;28;20508;-57
2022/02/15 21:58:23;;;;;;;1.73;0.75;;;17.60;64.60;;;;;;10411012;28;20072;-56
2022/02/15 22:03:24;;;;;;;1.98;0.70;;;17.60;64.00;;;;;;10428619;28;20030;-57
2022/02/15 22:08:26;;;;;;;2.30;1.10;;;17.60;63.80;;;;;;10411724;28;20087;-57
2022/02/15 22:13:27;;;;;;;2.67;0.50;;;17.70;63.70;;;;;;10413364;28;20088;-57
2022/02/15 22:18:28;;;;;;;1.67;0.55;;;17.60;63.70;;;;;;10422192;28;20038;-57
2022/02/15 22:23:29;;;;;;;3.03;0.98;;;17.60;63.80;;;;;;10411683;28;20030;-57
2022/02/15 22:28:31;;;;;;;1.83;0.82;;;17.60;63.90;;;;;;10399287;28;20038;-57
2022/02/15 22:33:32;;;;;;;1.08;0.60;;;17.60;63.70;;;;;;10415308;28;20072;-57
2022/02/15 22:38:33;;;;;;;1.10;0.60;;;17.60;64.20;;;;;;10398119;28;20034;-57
2022/02/15 22:43:33;;;;;;;1.80;0.77;;;17.70;63.60;;;;;;10410921;28;20171;-57
2022/02/15 22:48:34;;;;;;;1.85;0.55;;;17.60;63.60;;;;;;10412523;28;20083;-57
2022/02/15 22:53:35;;;;;;;2.45;0.73;;;17.60;63.40;;;;;;10416207;28;20040;-56
2022/02/15 22:58:36;;;;;;;1.55;0.65;;;17.60;63.40;;;;;;10411980;28;20029;-55
2022/02/15 23:03:36;;;;;;;1.33;0.60;;;17.60;63.40;;;;;;10412107;28;20033;-57
2022/02/15 23:19:35;;;;;;;1.10;0.40;;;17.70;63.40;;;;;;10443868;28;20120;-57
2022/02/15 23:24:36;;;;;;;3.58;0.47;;;17.70;63.40;;;;;;10424425;28;20471;-57
2022/02/15 23:29:36;;;;;;;1.65;0.60;;;17.60;63.30;;;;;;10406576;28;20069;-57
2022/02/15 23:34:37;;;;;;;1.55;0.60;;;17.70;63.30;;;;;;10404264;28;20661;-57
2022/02/15 23:39:38;;;;;;;1.27;0.57;;;17.70;63.20;;;;;;10418316;28;20037;-57
2022/02/15 23:44:38;;;;;;;1.95;0.75;;;17.70;63.30;;;;;;10416805;28;20523;-57
2022/02/15 23:49:39;;;;;;;2.08;0.70;;;17.70;63.10;;;;;;10416852;28;20043;-57
2022/02/15 23:54:40;;;;;;;1.98;0.50;;;17.70;63.10;;;;;;10417619;28;20033;-56
2022/02/15 23:59:41;;;;;;;1.25;0.55;;;17.70;63.00;;;;;;10416290;28;20037;-56
